createdAt,value
2023-03-16T00:00:10.542Z,0.00
2023-03-16T00:01:10.525Z,0.00
2023-03-16T00:02:10.670Z,0.00
2023-03-16T00:03:10.590Z,0.00
2023-03-16T00:04:10.476Z,0.00
2023-03-16T00:05:10.463Z,0.00
2023-03-16T00:06:10.478Z,0.00
2023-03-16T00:07:10.445Z,0.00
2023-03-16T00:08:10.425Z,0.00
2023-03-16T00:09:10.468Z,0.00
2023-03-16T00:10:10.420Z,0.00
2023-03-16T00:11:10.402Z,0.00
2023-03-16T00:12:10.386Z,0.00
2023-03-16T00:13:10.395Z,0.00
2023-03-16T00:14:10.363Z,0.00
2023-03-16T00:15:10.366Z,0.00
2023-03-16T00:16:10.426Z,0.00
2023-03-16T00:17:10.358Z,0.00
2023-03-16T00:18:10.333Z,0.00
2023-03-16T00:19:10.325Z,0.00
2023-03-16T00:20:10.306Z,0.00
2023-03-16T00:21:10.288Z,0.00
2023-03-16T00:22:10.272Z,0.00
2023-03-16T00:23:10.298Z,0.00
2023-03-16T00:24:10.274Z,0.00
2023-03-16T00:25:10.249Z,0.00
2023-03-16T00:26:10.293Z,0.00
2023-03-16T00:27:10.225Z,0.00
2023-03-16T00:28:10.273Z,0.00
2023-03-16T00:29:10.195Z,0.00
2023-03-16T00:30:10.186Z,0.00
2023-03-16T00:31:10.187Z,0.00
2023-03-16T00:32:10.165Z,0.00
2023-03-16T00:33:10.320Z,0.00
2023-03-16T00:34:10.182Z,0.00
2023-03-16T00:35:10.129Z,0.00
2023-03-16T00:36:10.222Z,0.00
2023-03-16T00:37:10.176Z,0.00
2023-03-16T00:38:10.115Z,0.00
2023-03-16T00:39:10.095Z,0.00
2023-03-16T00:40:10.081Z,0.00
2023-03-16T00:41:10.078Z,0.00
2023-03-16T00:42:10.063Z,0.00
2023-03-16T00:43:10.067Z,0.00
2023-03-16T00:44:10.036Z,0.00
2023-03-16T00:45:10.041Z,0.00
2023-03-16T00:46:10.134Z,0.00
2023-03-16T00:47:10.013Z,0.00
2023-03-16T00:48:09.995Z,0.00
2023-03-16T00:49:10.058Z,0.00
2023-03-16T00:50:09.965Z,0.00
2023-03-16T00:51:09.958Z,0.00
2023-03-16T00:52:09.956Z,0.00
2023-03-16T00:53:09.930Z,0.00
2023-03-16T00:54:09.937Z,0.00
2023-03-16T00:55:09.924Z,0.00
2023-03-16T00:56:09.905Z,0.00
2023-03-16T00:57:09.900Z,0.00
2023-03-16T00:58:09.881Z,0.00
2023-03-16T00:59:09.908Z,0.00
2023-03-16T01:00:09.859Z,0.00
2023-03-16T01:01:09.862Z,0.00
2023-03-16T01:02:09.835Z,0.00
2023-03-16T01:03:09.923Z,0.00
2023-03-16T01:04:09.835Z,0.00
2023-03-16T01:05:09.898Z,0.00
2023-03-16T01:06:09.790Z,0.00
2023-03-16T01:07:09.779Z,0.00
2023-03-16T01:08:09.782Z,0.00
2023-03-16T01:09:09.777Z,0.00
2023-03-16T01:10:09.750Z,0.00
2023-03-16T01:11:09.751Z,0.00
2023-03-16T01:12:09.731Z,0.00
2023-03-16T01:13:09.836Z,0.00
2023-03-16T01:14:09.717Z,0.00
2023-03-16T01:15:09.693Z,0.00
2023-03-16T01:16:09.683Z,0.00
2023-03-16T01:17:09.915Z,0.00
2023-03-16T01:18:09.659Z,0.00
2023-03-16T01:19:09.645Z,0.00
2023-03-16T01:20:09.635Z,0.00
2023-03-16T01:21:09.652Z,0.00
2023-03-16T01:22:09.635Z,0.00
2023-03-16T01:23:09.607Z,0.00
2023-03-16T01:24:09.599Z,0.00
2023-03-16T01:25:09.705Z,0.00
2023-03-16T01:26:09.579Z,0.00
2023-03-16T01:27:09.579Z,0.00
2023-03-16T01:28:09.573Z,0.00
2023-03-16T01:29:09.541Z,0.00
2023-03-16T01:30:09.549Z,0.00
2023-03-16T01:31:09.644Z,0.00
2023-03-16T01:32:09.767Z,0.00
2023-03-16T01:33:09.539Z,0.00
2023-03-16T01:34:09.483Z,0.00
2023-03-16T01:35:09.479Z,0.00
2023-03-16T01:36:09.467Z,0.00
2023-03-16T01:37:09.475Z,0.00
2023-03-16T01:38:09.462Z,0.00
2023-03-16T01:39:09.439Z,0.00
2023-03-16T01:40:09.435Z,0.00
2023-03-16T01:41:09.426Z,0.00
2023-03-16T01:42:09.400Z,0.00
2023-03-16T01:43:09.393Z,0.00
2023-03-16T01:44:09.378Z,0.00
2023-03-16T01:45:09.373Z,0.00
2023-03-16T01:46:09.447Z,0.00
2023-03-16T01:47:09.345Z,0.00
2023-03-16T01:48:09.336Z,0.00
2023-03-16T01:49:09.346Z,0.00
2023-03-16T01:50:09.354Z,0.00
2023-03-16T01:51:09.302Z,0.00
2023-03-16T01:52:09.293Z,0.00
2023-03-16T01:53:09.297Z,0.00
2023-03-16T01:54:09.293Z,0.00
2023-03-16T01:55:09.261Z,0.00
2023-03-16T01:56:09.265Z,0.00
2023-03-16T01:57:09.237Z,0.00
2023-03-16T01:58:09.242Z,0.00
2023-03-16T01:59:09.259Z,0.00
2023-03-16T02:00:09.208Z,0.00
2023-03-16T02:01:09.246Z,0.00
2023-03-16T02:02:09.195Z,0.00
2023-03-16T02:03:09.166Z,0.00
2023-03-16T02:04:09.225Z,0.00
2023-03-16T02:05:09.170Z,0.00
2023-03-16T02:06:09.140Z,0.00
2023-03-16T02:07:09.135Z,0.00
2023-03-16T02:08:09.209Z,0.00
2023-03-16T02:09:09.156Z,0.00
2023-03-16T02:10:09.113Z,0.00
2023-03-16T02:11:09.106Z,0.00
2023-03-16T02:12:09.073Z,0.00
2023-03-16T02:13:09.093Z,0.00
2023-03-16T02:14:09.060Z,0.00
2023-03-16T02:15:09.050Z,0.00
2023-03-16T02:16:09.102Z,0.00
2023-03-16T02:17:09.020Z,0.00
2023-03-16T02:18:09.059Z,0.00
2023-03-16T02:19:08.996Z,0.00
2023-03-16T02:20:09.004Z,0.00
2023-03-16T02:21:08.974Z,0.00
2023-03-16T02:22:08.962Z,0.00
2023-03-16T02:23:08.949Z,0.00
2023-03-16T02:24:08.972Z,0.00
2023-03-16T02:25:08.949Z,0.00
2023-03-16T02:26:08.926Z,0.00
2023-03-16T02:27:08.909Z,0.00
2023-03-16T02:28:08.894Z,0.00
2023-03-16T02:29:08.884Z,0.00
2023-03-16T02:30:08.892Z,0.00
2023-03-16T02:31:08.912Z,0.00
2023-03-16T02:32:08.848Z,0.00
2023-03-16T02:33:08.838Z,0.00
2023-03-16T02:34:08.851Z,0.00
2023-03-16T02:35:08.829Z,0.00
2023-03-16T02:36:08.860Z,0.00
2023-03-16T02:37:08.811Z,0.00
2023-03-16T02:38:08.799Z,0.00
2023-03-16T02:39:08.965Z,0.00
2023-03-16T02:40:08.775Z,0.00
2023-03-16T02:41:08.776Z,0.00
2023-03-16T02:42:08.743Z,0.00
2023-03-16T02:43:08.737Z,0.00
2023-03-16T02:44:08.742Z,0.00
2023-03-16T02:45:08.708Z,0.00
2023-03-16T02:46:08.766Z,0.00
2023-03-16T02:47:08.726Z,0.00
2023-03-16T02:48:08.680Z,0.00
2023-03-16T02:49:08.690Z,0.00
2023-03-16T02:50:08.649Z,0.00
2023-03-16T02:51:08.778Z,0.00
2023-03-16T02:52:08.644Z,0.00
2023-03-16T02:53:08.638Z,0.00
2023-03-16T02:54:08.627Z,0.00
2023-03-16T02:55:08.599Z,0.00
2023-03-16T02:56:08.588Z,0.00
2023-03-16T02:57:08.597Z,0.00
2023-03-16T02:58:08.578Z,0.00
2023-03-16T02:59:08.555Z,0.00
2023-03-16T03:00:08.543Z,0.00
2023-03-16T03:01:08.530Z,0.00
2023-03-16T03:02:10.889Z,0.00
2023-03-16T03:03:09.032Z,0.00
2023-03-16T03:04:08.496Z,0.00
2023-03-16T03:05:08.501Z,0.00
2023-03-16T03:06:08.482Z,0.00
2023-03-16T03:07:08.482Z,0.00
2023-03-16T03:08:08.456Z,0.00
2023-03-16T03:09:08.458Z,0.00
2023-03-16T03:10:08.431Z,0.00
2023-03-16T03:11:08.442Z,0.00
2023-03-16T03:12:08.438Z,0.00
2023-03-16T03:13:08.432Z,0.00
2023-03-16T03:14:08.389Z,0.00
2023-03-16T03:15:08.385Z,0.00
2023-03-16T03:16:08.414Z,0.00
2023-03-16T03:17:08.356Z,0.00
2023-03-16T03:18:08.554Z,0.00
2023-03-16T03:19:08.337Z,0.00
2023-03-16T03:20:08.326Z,0.00
2023-03-16T03:21:08.422Z,0.00
2023-03-16T03:22:08.303Z,0.00
2023-03-16T03:23:08.310Z,0.00
2023-03-16T03:24:08.273Z,0.00
2023-03-16T03:25:08.270Z,0.00
2023-03-16T03:26:08.308Z,0.00
2023-03-16T03:27:08.246Z,0.00
2023-03-16T03:28:08.306Z,0.00
2023-03-16T03:29:08.251Z,0.00
2023-03-16T03:30:08.214Z,0.00
2023-03-16T03:31:08.264Z,0.00
2023-03-16T03:32:08.485Z,0.00
2023-03-16T03:33:08.258Z,0.00
2023-03-16T03:34:08.168Z,0.00
2023-03-16T03:35:08.196Z,0.00
2023-03-16T03:36:08.214Z,0.00
2023-03-16T03:37:08.140Z,0.00
2023-03-16T03:38:08.159Z,0.00
2023-03-16T03:39:08.128Z,0.00
2023-03-16T03:40:08.098Z,0.00
2023-03-16T03:41:08.093Z,0.00
2023-03-16T03:42:08.150Z,0.00
2023-03-16T03:43:08.066Z,0.00
2023-03-16T03:44:08.059Z,0.00
2023-03-16T03:45:08.065Z,0.00
2023-03-16T03:46:08.251Z,0.00
2023-03-16T03:47:08.132Z,0.00
2023-03-16T03:48:08.020Z,0.00
2023-03-16T03:49:08.132Z,0.00
2023-03-16T03:50:08.004Z,0.00
2023-03-16T03:51:08.057Z,0.00
2023-03-16T03:52:07.980Z,0.00
2023-03-16T03:53:07.963Z,0.00
2023-03-16T03:54:07.968Z,0.00
2023-03-16T03:55:07.939Z,0.00
2023-03-16T03:56:07.926Z,0.00
2023-03-16T03:57:07.912Z,0.00
2023-03-16T03:58:07.902Z,0.00
2023-03-16T03:59:07.908Z,0.00
2023-03-16T04:00:07.914Z,0.00
2023-03-16T04:01:07.894Z,0.00
2023-03-16T04:02:08.057Z,0.00
2023-03-16T04:03:08.206Z,0.00
2023-03-16T04:04:07.837Z,0.00
2023-03-16T04:05:07.841Z,0.00
2023-03-16T04:06:07.814Z,0.00
2023-03-16T04:07:07.802Z,0.00
2023-03-16T04:08:07.792Z,0.00
2023-03-16T04:09:07.806Z,0.00
2023-03-16T04:10:07.789Z,0.00
2023-03-16T04:11:07.761Z,0.00
2023-03-16T04:12:07.748Z,0.00
2023-03-16T04:13:07.732Z,0.00
2023-03-16T04:14:07.726Z,0.00
2023-03-16T04:15:07.755Z,0.00
2023-03-16T04:16:07.707Z,0.00
2023-03-16T04:17:07.711Z,0.00
2023-03-16T04:18:07.692Z,0.00
2023-03-16T04:19:07.672Z,0.00
2023-03-16T04:20:07.677Z,0.00
2023-03-16T04:21:07.660Z,0.00
2023-03-16T04:22:07.652Z,0.00
2023-03-16T04:23:07.629Z,0.00
2023-03-16T04:24:07.614Z,0.00
2023-03-16T04:25:07.622Z,0.00
2023-03-16T04:26:07.593Z,0.00
2023-03-16T04:27:07.597Z,0.00
2023-03-16T04:28:07.573Z,0.00
2023-03-16T04:29:07.562Z,0.00
2023-03-16T04:30:07.565Z,0.00
2023-03-16T04:31:07.698Z,0.00
2023-03-16T04:32:07.532Z,0.00
2023-03-16T04:33:07.635Z,0.00
2023-03-16T04:34:07.505Z,0.00
2023-03-16T04:35:07.511Z,0.00
2023-03-16T04:36:07.549Z,0.00
2023-03-16T04:37:07.678Z,0.00
2023-03-16T04:38:07.466Z,0.00
2023-03-16T04:39:07.457Z,0.00
2023-03-16T04:40:09.250Z,0.00
2023-03-16T04:41:07.434Z,0.00
2023-03-16T04:42:07.433Z,0.00
2023-03-16T04:43:07.424Z,0.00
2023-03-16T04:44:07.413Z,0.00
2023-03-16T04:45:07.389Z,0.00
2023-03-16T04:46:07.429Z,0.00
2023-03-16T04:47:07.366Z,0.00
2023-03-16T04:48:07.360Z,0.00
2023-03-16T04:49:07.366Z,0.00
2023-03-16T04:50:07.350Z,0.00
2023-03-16T04:51:07.317Z,0.00
2023-03-16T04:52:07.316Z,0.00
2023-03-16T04:53:07.304Z,0.00
2023-03-16T04:54:07.293Z,0.00
2023-03-16T04:55:07.297Z,0.00
2023-03-16T04:56:07.262Z,0.00
2023-03-16T04:57:07.263Z,0.00
2023-03-16T04:58:07.259Z,0.00
2023-03-16T04:59:07.256Z,0.00
2023-03-16T05:00:07.247Z,0.00
2023-03-16T05:01:07.253Z,0.00
2023-03-16T05:02:07.214Z,0.00
2023-03-16T05:03:07.196Z,0.00
2023-03-16T05:04:07.178Z,0.00
2023-03-16T05:05:07.309Z,0.00
2023-03-16T05:06:07.162Z,0.00
2023-03-16T05:07:07.158Z,0.00
2023-03-16T05:08:07.972Z,0.00
2023-03-16T05:09:07.123Z,0.00
2023-03-16T05:10:07.146Z,0.00
2023-03-16T05:11:07.110Z,0.00
2023-03-16T05:12:07.093Z,0.00
2023-03-16T05:13:07.089Z,5.62
2023-03-16T05:14:07.077Z,5.62
2023-03-16T05:15:07.073Z,5.62
2023-03-16T05:16:07.134Z,5.62
2023-03-16T05:17:07.061Z,5.62
2023-03-16T05:18:07.033Z,5.62
2023-03-16T05:19:07.027Z,5.62
2023-03-16T05:20:07.026Z,5.62
2023-03-16T05:21:07.019Z,11.25
2023-03-16T05:22:06.987Z,11.25
2023-03-16T05:23:06.980Z,11.25
2023-03-16T05:24:06.969Z,11.25
2023-03-16T05:25:06.977Z,11.25
2023-03-16T05:26:06.946Z,11.25
2023-03-16T05:27:06.932Z,16.88
2023-03-16T05:28:06.938Z,16.88
2023-03-16T05:29:06.918Z,16.88
2023-03-16T05:30:06.904Z,16.88
2023-03-16T05:31:07.004Z,22.50
2023-03-16T05:32:06.899Z,22.50
2023-03-16T05:33:07.014Z,22.50
2023-03-16T05:34:06.937Z,22.50
2023-03-16T05:35:06.888Z,22.50
2023-03-16T05:36:06.897Z,28.12
2023-03-16T05:37:06.845Z,28.12
2023-03-16T05:38:06.825Z,28.12
2023-03-16T05:39:06.832Z,28.12
2023-03-16T05:40:06.799Z,33.75
2023-03-16T05:41:06.782Z,33.75
2023-03-16T05:42:06.771Z,33.75
2023-03-16T05:43:06.779Z,33.75
2023-03-16T05:44:06.749Z,39.38
2023-03-16T05:45:06.744Z,39.38
2023-03-16T05:46:06.827Z,39.38
2023-03-16T05:47:06.810Z,39.38
2023-03-16T05:48:06.723Z,39.38
2023-03-16T05:49:06.906Z,45.00
2023-03-16T05:50:06.693Z,45.00
2023-03-16T05:51:06.683Z,45.00
2023-03-16T05:52:06.672Z,45.00
2023-03-16T05:53:06.748Z,50.62
2023-03-16T05:54:06.647Z,50.62
2023-03-16T05:55:06.641Z,50.62
2023-03-16T05:56:06.623Z,50.62
2023-03-16T05:57:06.768Z,56.25
2023-03-16T05:58:06.610Z,56.25
2023-03-16T05:59:06.593Z,56.25
2023-03-16T06:00:06.579Z,56.25
2023-03-16T06:01:06.569Z,61.88
2023-03-16T06:02:06.571Z,61.88
2023-03-16T06:03:06.592Z,61.88
2023-03-16T06:04:06.578Z,61.88
2023-03-16T06:05:06.655Z,67.50
2023-03-16T06:06:06.516Z,67.50
2023-03-16T06:07:06.520Z,67.50
2023-03-16T06:08:06.489Z,67.50
2023-03-16T06:09:06.508Z,67.50
2023-03-16T06:10:06.502Z,73.12
2023-03-16T06:11:06.456Z,73.12
2023-03-16T06:12:08.584Z,73.12
2023-03-16T06:13:06.481Z,73.12
2023-03-16T06:14:06.425Z,78.75
2023-03-16T06:15:06.429Z,78.75
2023-03-16T06:16:06.488Z,84.38
2023-03-16T06:17:06.403Z,90.00
2023-03-16T06:18:06.398Z,101.25
2023-03-16T06:19:06.378Z,106.88
2023-03-16T06:20:06.376Z,163.12
2023-03-16T06:21:06.357Z,270.00
2023-03-16T06:22:06.401Z,365.62
2023-03-16T06:23:06.343Z,331.88
2023-03-16T06:24:06.326Z,219.38
2023-03-16T06:25:06.329Z,185.62
2023-03-16T06:26:06.297Z,281.25
2023-03-16T06:27:06.289Z,393.75
2023-03-16T06:28:06.284Z,466.88
2023-03-16T06:29:06.286Z,483.75
2023-03-16T06:30:06.261Z,506.25
2023-03-16T06:31:06.472Z,511.88
2023-03-16T06:32:06.338Z,511.88
2023-03-16T06:33:06.645Z,528.75
2023-03-16T06:34:06.210Z,534.38
2023-03-16T06:35:06.206Z,545.62
2023-03-16T06:36:06.318Z,556.88
2023-03-16T06:37:06.192Z,568.12
2023-03-16T06:38:06.186Z,568.12
2023-03-16T06:39:06.182Z,607.50
2023-03-16T06:40:06.150Z,607.50
2023-03-16T06:41:06.229Z,607.50
2023-03-16T06:42:06.136Z,601.88
2023-03-16T06:43:06.118Z,613.12
2023-03-16T06:44:06.116Z,658.12
2023-03-16T06:45:06.109Z,663.75
2023-03-16T06:46:06.203Z,686.25
2023-03-16T06:47:06.073Z,697.50
2023-03-16T06:48:06.069Z,686.25
2023-03-16T06:49:06.046Z,748.12
2023-03-16T06:50:06.047Z,753.75
2023-03-16T06:51:06.080Z,714.38
2023-03-16T06:52:06.014Z,776.25
2023-03-16T06:53:06.016Z,793.12
2023-03-16T06:54:05.991Z,826.88
2023-03-16T06:55:06.493Z,871.88
2023-03-16T06:56:05.989Z,933.75
2023-03-16T06:57:05.974Z,1023.75
2023-03-16T06:58:05.942Z,1136.25
2023-03-16T06:59:05.951Z,1192.50
2023-03-16T07:00:05.921Z,1125.00
2023-03-16T07:01:05.951Z,1018.12
2023-03-16T07:02:05.917Z,956.25
2023-03-16T07:03:05.890Z,922.50
2023-03-16T07:04:06.031Z,911.25
2023-03-16T07:05:05.875Z,888.75
2023-03-16T07:06:05.909Z,871.88
2023-03-16T07:07:06.128Z,871.88
2023-03-16T07:08:05.828Z,871.88
2023-03-16T07:09:05.819Z,877.50
2023-03-16T07:10:05.808Z,883.12
2023-03-16T07:11:05.827Z,888.75
2023-03-16T07:12:05.784Z,894.38
2023-03-16T07:13:05.791Z,894.38
2023-03-16T07:14:05.765Z,905.62
2023-03-16T07:15:05.754Z,916.88
2023-03-16T07:16:05.753Z,922.50
2023-03-16T07:17:05.790Z,933.75
2023-03-16T07:18:05.724Z,939.38
2023-03-16T07:19:05.707Z,950.62
2023-03-16T07:20:05.784Z,961.88
2023-03-16T07:21:05.698Z,973.12
2023-03-16T07:22:05.683Z,990.00
2023-03-16T07:23:05.667Z,990.00
2023-03-16T07:24:05.649Z,1001.25
2023-03-16T07:25:05.690Z,1012.50
2023-03-16T07:26:05.664Z,1029.38
2023-03-16T07:27:05.619Z,1051.88
2023-03-16T07:28:05.608Z,1074.38
2023-03-16T07:29:05.616Z,1080.00
2023-03-16T07:30:05.590Z,1096.88
2023-03-16T07:31:05.604Z,1108.12
2023-03-16T07:32:05.643Z,1113.75
2023-03-16T07:33:05.714Z,1136.25
2023-03-16T07:34:05.542Z,1147.50
2023-03-16T07:35:05.566Z,1147.50
2023-03-16T07:36:05.726Z,1158.75
2023-03-16T07:37:05.503Z,1164.38
2023-03-16T07:38:05.569Z,1170.00
2023-03-16T07:39:05.490Z,1181.25
2023-03-16T07:40:05.483Z,1186.88
2023-03-16T07:41:05.476Z,1198.12
2023-03-16T07:42:05.463Z,1209.38
2023-03-16T07:43:05.434Z,1226.25
2023-03-16T07:44:05.439Z,1237.50
2023-03-16T07:45:05.657Z,1254.38
2023-03-16T07:46:05.557Z,1254.38
2023-03-16T07:47:05.393Z,1265.62
2023-03-16T07:48:05.393Z,1282.50
2023-03-16T07:49:05.372Z,1299.38
2023-03-16T07:50:05.363Z,1305.00
2023-03-16T07:51:05.366Z,1316.25
2023-03-16T07:52:05.360Z,1338.75
2023-03-16T07:53:05.347Z,1355.62
2023-03-16T07:54:05.314Z,1355.62
2023-03-16T07:55:05.349Z,1378.12
2023-03-16T07:56:05.294Z,1383.75
2023-03-16T07:57:05.280Z,1395.00
2023-03-16T07:58:05.281Z,1395.00
2023-03-16T07:59:05.256Z,1383.75
2023-03-16T08:00:05.321Z,1428.75
2023-03-16T08:01:05.292Z,1428.75
2023-03-16T08:02:05.242Z,1440.00
2023-03-16T08:03:05.216Z,1451.25
2023-03-16T08:04:05.442Z,1456.88
2023-03-16T08:05:05.193Z,1462.50
2023-03-16T08:06:05.182Z,1479.38
2023-03-16T08:07:05.167Z,1485.00
2023-03-16T08:08:05.159Z,1496.25
2023-03-16T08:09:05.168Z,1507.50
2023-03-16T08:10:05.142Z,1524.38
2023-03-16T08:11:05.137Z,1541.25
2023-03-16T08:12:05.121Z,1541.25
2023-03-16T08:13:05.199Z,1558.12
2023-03-16T08:14:05.967Z,1575.00
2023-03-16T08:15:05.082Z,1586.25
2023-03-16T08:16:05.161Z,1586.25
2023-03-16T08:17:05.087Z,1597.50
2023-03-16T08:18:05.050Z,1608.75
2023-03-16T08:19:05.045Z,1620.00
2023-03-16T08:20:05.043Z,1625.62
2023-03-16T08:21:05.018Z,1631.25
2023-03-16T08:22:05.007Z,1636.88
2023-03-16T08:23:05.957Z,1642.50
2023-03-16T08:24:10.974Z,1648.12
2023-03-16T08:25:04.974Z,1687.50
2023-03-16T08:26:04.969Z,1681.88
2023-03-16T08:27:04.954Z,1681.88
2023-03-16T08:28:04.942Z,1715.62
2023-03-16T08:29:05.029Z,1721.25
2023-03-16T08:30:04.998Z,1715.62
2023-03-16T08:31:04.976Z,1732.50
2023-03-16T08:32:04.911Z,1665.00
2023-03-16T08:33:05.044Z,1743.75
2023-03-16T08:34:04.883Z,1766.25
2023-03-16T08:35:04.886Z,1777.50
2023-03-16T08:36:04.976Z,1788.75
2023-03-16T08:37:04.843Z,1788.75
2023-03-16T08:38:04.860Z,1788.75
2023-03-16T08:39:07.294Z,1805.62
2023-03-16T08:40:04.832Z,1811.25
2023-03-16T08:41:04.802Z,1811.25
2023-03-16T08:42:04.791Z,1828.12
2023-03-16T08:43:04.780Z,1850.62
2023-03-16T08:44:04.766Z,1839.38
2023-03-16T08:45:04.770Z,1766.25
2023-03-16T08:46:04.801Z,1878.75
2023-03-16T08:47:04.736Z,1890.00
2023-03-16T08:48:04.722Z,1890.00
2023-03-16T08:49:04.742Z,1906.88
2023-03-16T08:50:04.701Z,1929.38
2023-03-16T08:51:04.690Z,1935.00
2023-03-16T08:52:04.678Z,1811.25
2023-03-16T08:53:04.668Z,1963.12
2023-03-16T08:54:04.670Z,2002.50
2023-03-16T08:55:05.040Z,1974.38
2023-03-16T08:56:04.640Z,1721.25
2023-03-16T08:57:04.632Z,1991.25
2023-03-16T08:58:04.611Z,2036.25
2023-03-16T08:59:04.623Z,1991.25
2023-03-16T09:00:04.595Z,1929.38
2023-03-16T09:01:04.578Z,1760.62
2023-03-16T09:02:04.645Z,2013.75
2023-03-16T09:03:04.570Z,1935.00
2023-03-16T09:04:04.681Z,1991.25
2023-03-16T09:05:04.553Z,2053.12
2023-03-16T09:06:04.533Z,2041.88
2023-03-16T09:07:09.615Z,2008.12
2023-03-16T09:08:05.515Z,2019.38
2023-03-16T09:09:04.501Z,2081.25
2023-03-16T09:10:04.489Z,2081.25
2023-03-16T09:11:04.471Z,2025.00
2023-03-16T09:12:04.670Z,2058.75
2023-03-16T09:13:04.457Z,2109.38
2023-03-16T09:14:04.476Z,2081.25
2023-03-16T09:15:04.424Z,2053.12
2023-03-16T09:16:04.518Z,2092.50
2023-03-16T09:17:04.419Z,2176.88
2023-03-16T09:18:04.402Z,2148.75
2023-03-16T09:19:04.422Z,2081.25
2023-03-16T09:20:15.310Z,2115.00
2023-03-16T09:21:05.376Z,2193.75
2023-03-16T09:22:04.368Z,2171.25
2023-03-16T09:23:04.358Z,2115.00
2023-03-16T09:24:04.328Z,2148.75
2023-03-16T09:25:04.320Z,2221.88
2023-03-16T09:26:04.306Z,2244.38
2023-03-16T09:27:04.399Z,2165.62
2023-03-16T09:28:04.292Z,2182.50
2023-03-16T09:29:04.270Z,2227.50
2023-03-16T09:30:04.269Z,2238.75
2023-03-16T09:31:04.313Z,2188.12
2023-03-16T09:32:04.276Z,2199.38
2023-03-16T09:33:04.435Z,2266.88
2023-03-16T09:34:04.220Z,2300.62
2023-03-16T09:35:04.212Z,2261.25
2023-03-16T09:36:04.280Z,2098.12
2023-03-16T09:37:04.210Z,2289.38
2023-03-16T09:38:05.876Z,2345.62
2023-03-16T09:39:04.161Z,2328.75
2023-03-16T09:40:11.704Z,2278.12
2023-03-16T09:41:05.157Z,2278.12
2023-03-16T09:42:04.130Z,2300.62
2023-03-16T09:43:04.121Z,2311.88
2023-03-16T09:44:04.108Z,2289.38
2023-03-16T09:45:04.121Z,2306.25
2023-03-16T09:46:04.182Z,2345.62
2023-03-16T09:47:04.076Z,2368.12
2023-03-16T09:48:04.072Z,2334.38
2023-03-16T09:49:04.059Z,2323.12
2023-03-16T09:50:04.046Z,2362.50
2023-03-16T09:51:04.079Z,2390.62
2023-03-16T09:52:04.029Z,2373.75
2023-03-16T09:53:04.041Z,2351.25
2023-03-16T09:54:04.013Z,2362.50
2023-03-16T09:55:04.008Z,2407.50
2023-03-16T09:56:03.998Z,2413.12
2023-03-16T09:57:03.971Z,2390.62
2023-03-16T09:58:03.972Z,2390.62
2023-03-16T09:59:03.946Z,2413.12
2023-03-16T10:00:03.940Z,2430.00
2023-03-16T10:01:03.975Z,2385.00
2023-03-16T10:02:03.914Z,2362.50
2023-03-16T10:03:03.913Z,2407.50
2023-03-16T10:04:03.942Z,2430.00
2023-03-16T10:05:03.881Z,2430.00
2023-03-16T10:06:03.885Z,2385.00
2023-03-16T10:07:03.854Z,2368.12
2023-03-16T10:08:03.884Z,2407.50
2023-03-16T10:09:03.882Z,2446.88
2023-03-16T10:10:03.827Z,2441.25
2023-03-16T10:11:03.831Z,2418.75
2023-03-16T10:12:03.809Z,2407.50
2023-03-16T10:13:03.815Z,2435.62
2023-03-16T10:14:03.797Z,2469.38
2023-03-16T10:15:03.844Z,2452.50
2023-03-16T10:16:03.849Z,2424.38
2023-03-16T10:17:03.805Z,2435.62
2023-03-16T10:18:03.776Z,2452.50
2023-03-16T10:19:03.741Z,2480.62
2023-03-16T10:20:03.721Z,2446.88
2023-03-16T10:21:03.717Z,2401.88
2023-03-16T10:22:03.696Z,2413.12
2023-03-16T10:23:03.683Z,2441.25
2023-03-16T10:24:03.692Z,2446.88
2023-03-16T10:25:03.705Z,2446.88
2023-03-16T10:26:03.657Z,2424.38
2023-03-16T10:27:03.678Z,2401.88
2023-03-16T10:28:03.668Z,2441.25
2023-03-16T10:29:03.635Z,2458.12
2023-03-16T10:30:03.633Z,2458.12
2023-03-16T10:31:03.652Z,2441.25
2023-03-16T10:32:03.694Z,2446.88
2023-03-16T10:33:03.706Z,2463.75
2023-03-16T10:34:03.583Z,2452.50
2023-03-16T10:35:03.556Z,2424.38
2023-03-16T10:36:03.549Z,2407.50
2023-03-16T10:37:03.533Z,2435.62
2023-03-16T10:38:03.527Z,2379.38
2023-03-16T10:39:03.538Z,2452.50
2023-03-16T10:40:03.502Z,2441.25
2023-03-16T10:41:03.534Z,2424.38
2023-03-16T10:42:03.482Z,2435.62
2023-03-16T10:43:03.470Z,2458.12
2023-03-16T10:44:03.476Z,2435.62
2023-03-16T10:45:03.689Z,2413.12
2023-03-16T10:46:03.526Z,2424.38
2023-03-16T10:47:03.523Z,2446.88
2023-03-16T10:48:03.435Z,2469.38
2023-03-16T10:49:03.434Z,2418.75
2023-03-16T10:50:03.401Z,2401.88
2023-03-16T10:51:03.394Z,2452.50
2023-03-16T10:52:03.382Z,2525.62
2023-03-16T10:53:03.375Z,2486.25
2023-03-16T10:54:03.391Z,2401.88
2023-03-16T10:55:03.364Z,2390.62
2023-03-16T10:56:03.357Z,2452.50
2023-03-16T10:57:03.355Z,2497.50
2023-03-16T10:58:03.318Z,2486.25
2023-03-16T10:59:03.311Z,2401.88
2023-03-16T11:00:03.312Z,2379.38
2023-03-16T11:01:03.325Z,2368.12
2023-03-16T11:02:03.275Z,2452.50
2023-03-16T11:03:03.265Z,2373.75
2023-03-16T11:04:04.071Z,2379.38
2023-03-16T11:05:03.281Z,2379.38
2023-03-16T11:06:03.237Z,2452.50
2023-03-16T11:07:03.252Z,2525.62
2023-03-16T11:08:03.210Z,2452.50
2023-03-16T11:09:03.200Z,2323.12
2023-03-16T11:10:03.242Z,2334.38
2023-03-16T11:11:03.179Z,2368.12
2023-03-16T11:12:03.175Z,2441.25
2023-03-16T11:13:03.194Z,2362.50
2023-03-16T11:14:03.158Z,2306.25
2023-03-16T11:15:03.704Z,2368.12
2023-03-16T11:16:03.608Z,2542.50
2023-03-16T11:17:03.161Z,2548.12
2023-03-16T11:18:03.111Z,2418.75
2023-03-16T11:19:03.090Z,2373.75
2023-03-16T11:20:03.097Z,2418.75
2023-03-16T11:21:03.095Z,2486.25
2023-03-16T11:22:03.069Z,2092.50
2023-03-16T11:23:03.054Z,2463.75
2023-03-16T11:24:03.043Z,2334.38
2023-03-16T11:25:03.587Z,2289.38
2023-03-16T11:26:03.020Z,2407.50
2023-03-16T11:27:03.014Z,2373.75
2023-03-16T11:28:02.999Z,2356.88
2023-03-16T11:29:03.023Z,2238.75
2023-03-16T11:30:02.973Z,2379.38
2023-03-16T11:31:03.018Z,2351.25
2023-03-16T11:32:02.959Z,2238.75
2023-03-16T11:33:02.994Z,2272.50
2023-03-16T11:34:02.957Z,2323.12
2023-03-16T11:35:02.928Z,2345.62
2023-03-16T11:36:02.946Z,2334.38
2023-03-16T11:37:02.918Z,2193.75
2023-03-16T11:38:10.612Z,2306.25
2023-03-16T11:39:02.881Z,2306.25
2023-03-16T11:40:02.871Z,2289.38
2023-03-16T11:41:02.856Z,2340.00
2023-03-16T11:42:02.935Z,2306.25
2023-03-16T11:43:02.868Z,2317.50
2023-03-16T11:44:02.828Z,2261.25
2023-03-16T11:45:02.837Z,2306.25
2023-03-16T11:46:02.869Z,2283.75
2023-03-16T11:47:02.810Z,2266.88
2023-03-16T11:48:03.010Z,2221.88
2023-03-16T11:49:02.786Z,2227.50
2023-03-16T11:50:02.766Z,2289.38
2023-03-16T11:51:02.793Z,2328.75
2023-03-16T11:52:02.743Z,2317.50
2023-03-16T11:53:02.731Z,2362.50
2023-03-16T11:54:02.726Z,2368.12
2023-03-16T11:55:02.735Z,2351.25
2023-03-16T11:56:03.149Z,2295.00
2023-03-16T11:57:02.686Z,2328.75
2023-03-16T11:58:02.709Z,2334.38
2023-03-16T11:59:02.713Z,2340.00
2023-03-16T12:00:02.653Z,2351.25
2023-03-16T12:01:03.165Z,2250.00
2023-03-16T12:02:02.666Z,2306.25
2023-03-16T12:03:02.873Z,2334.38
2023-03-16T12:04:02.759Z,2362.50
2023-03-16T12:05:02.595Z,2328.75
2023-03-16T12:06:13.628Z,2340.00
2023-03-16T12:07:03.586Z,2368.12
2023-03-16T12:08:02.584Z,2340.00
2023-03-16T12:09:02.558Z,2261.25
2023-03-16T12:10:03.078Z,2233.12
2023-03-16T12:11:02.588Z,2278.12
2023-03-16T12:12:02.521Z,2272.50
2023-03-16T12:13:02.504Z,2289.38
2023-03-16T12:14:02.497Z,2311.88
2023-03-16T12:15:02.593Z,2311.88
2023-03-16T12:16:02.584Z,2283.75
2023-03-16T12:17:03.060Z,2272.50
2023-03-16T12:18:02.500Z,2221.88
2023-03-16T12:19:02.457Z,2283.75
2023-03-16T12:20:02.479Z,2295.00
2023-03-16T12:21:02.435Z,2306.25
2023-03-16T12:22:02.408Z,2300.62
2023-03-16T12:23:02.403Z,2233.12
2023-03-16T12:24:02.386Z,2233.12
2023-03-16T12:25:02.404Z,2227.50
2023-03-16T12:26:02.386Z,2233.12
2023-03-16T12:27:02.389Z,2188.12
2023-03-16T12:28:02.377Z,2182.50
2023-03-16T12:29:02.348Z,2199.38
2023-03-16T12:30:02.322Z,2193.75
2023-03-16T12:31:02.342Z,2103.75
2023-03-16T12:32:02.444Z,2098.12
2023-03-16T12:33:02.417Z,2019.38
2023-03-16T12:34:02.305Z,2165.62
2023-03-16T12:35:02.272Z,2143.12
2023-03-16T12:36:02.310Z,2148.75
2023-03-16T12:37:02.278Z,2160.00
2023-03-16T12:38:02.270Z,2120.62
2023-03-16T12:39:02.242Z,2109.38
2023-03-16T12:40:02.218Z,2120.62